sensor_id;sensor_type;location;lat;lon;timestamp;pressure;altitude;pressure_sealevel;temperature;humidity
4528;BME280;62320;51.520;6.818;2023-05-29T00:00:20;101682.88;;;15.40;64.14
4528;BME280;62320;51.520;6.818;2023-05-29T00:10:22;101682.81;;;15.55;61.55
4528;BME280;62320;51.520;6.818;2023-05-29T00:20:24;101685.72;;;14.82;67.88
4528;BME280;62320;51.520;6.818;2023-05-29T00:30:25;101701.31;;;14.79;69.04
4528;BME280;62320;51.520;6.818;2023-05-29T00:40:27;101715.25;;;14.41;69.89
4528;BME280;62320;51.520;6.818;2023-05-29T00:50:29;101722.16;;;13.99;74.42
4528;BME280;62320;51.520;6.818;2023-05-29T01:00:31;101735.22;;;14.63;68.43
4528;BME280;62320;51.520;6.818;2023-05-29T01:10:34;101738.66;;;14.77;66.64
4528;BME280;62320;51.520;6.818;2023-05-29T01:20:50;101746.47;;;14.16;68.60
4528;BME280;62320;51.520;6.818;2023-05-29T01:30:56;101741.16;;;13.62;73.54
4528;BME280;62320;51.520;6.818;2023-05-29T01:40:58;101757.41;;;13.19;73.65
4528;BME280;62320;51.520;6.818;2023-05-29T01:50:59;101752.28;;;13.34;71.39
4528;BME280;62320;51.520;6.818;2023-05-29T02:01:02;101765.41;;;13.59;68.42
4528;BME280;62320;51.520;6.818;2023-05-29T02:11:05;101764.44;;;13.38;68.36
4528;BME280;62320;51.520;6.818;2023-05-29T02:21:07;101770.00;;;12.60;73.95
4528;BME280;62320;51.520;6.818;2023-05-29T02:31:08;101770.88;;;12.62;72.04
4528;BME280;62320;51.520;6.818;2023-05-29T02:41:10;101769.25;;;12.79;71.60
4528;BME280;62320;51.520;6.818;2023-05-29T02:51:11;101773.34;;;12.47;72.38
4528;BME280;62320;51.520;6.818;2023-05-29T03:01:13;101785.28;;;12.28;74.18
4528;BME280;62320;51.520;6.818;2023-05-29T03:11:14;101780.81;;;12.13;73.48
4528;BME280;62320;51.520;6.818;2023-05-29T03:21:17;101786.81;;;12.09;74.46
4528;BME280;62320;51.520;6.818;2023-05-29T03:31:18;101793.00;;;11.48;79.51
4528;BME280;62320;51.520;6.818;2023-05-29T03:41:20;101782.19;;;11.80;74.78
4528;BME280;62320;51.520;6.818;2023-05-29T03:51:22;101812.13;;;11.58;77.63
4528;BME280;62320;51.520;6.818;2023-05-29T04:01:23;101814.22;;;11.22;81.36
4528;BME280;62320;51.520;6.818;2023-05-29T04:11:25;101813.22;;;11.74;75.85
4528;BME280;62320;51.520;6.818;2023-05-29T04:21:27;101816.00;;;11.26;82.47
4528;BME280;62320;51.520;6.818;2023-05-29T04:31:28;101824.00;;;11.42;82.52
4528;BME280;62320;51.520;6.818;2023-05-29T04:41:30;101838.34;;;11.81;79.13
4528;BME280;62320;51.520;6.818;2023-05-29T04:51:32;101844.78;;;12.14;78.12
4528;BME280;62320;51.520;6.818;2023-05-29T05:01:34;101851.84;;;12.29;75.99
4528;BME280;62320;51.520;6.818;2023-05-29T05:11:35;101860.63;;;12.42;75.93
4528;BME280;62320;51.520;6.818;2023-05-29T05:21:37;101844.19;;;12.41;77.57
4528;BME280;62320;51.520;6.818;2023-05-29T05:31:38;101850.66;;;12.85;74.92
4528;BME280;62320;51.520;6.818;2023-05-29T05:41:40;101854.03;;;12.74;77.14
4528;BME280;62320;51.520;6.818;2023-05-29T05:51:42;101849.25;;;13.30;73.34
4528;BME280;62320;51.520;6.818;2023-05-29T06:01:44;101862.44;;;13.62;73.80
4528;BME280;62320;51.520;6.818;2023-05-29T06:11:45;101860.91;;;14.13;72.10
4528;BME280;62320;51.520;6.818;2023-05-29T06:21:47;101872.19;;;14.12;71.30
4528;BME280;62320;51.520;6.818;2023-05-29T06:31:48;101875.78;;;14.61;68.77
4528;BME280;62320;51.520;6.818;2023-05-29T06:41:50;101863.63;;;15.10;66.29
4528;BME280;62320;51.520;6.818;2023-05-29T06:51:51;101857.47;;;15.67;65.65
4528;BME280;62320;51.520;6.818;2023-05-29T07:01:53;101884.44;;;15.45;63.96
4528;BME280;62320;51.520;6.818;2023-05-29T07:11:54;101878.16;;;16.05;63.45
4528;BME280;62320;51.520;6.818;2023-05-29T07:21:56;101877.25;;;16.16;62.75
4528;BME280;62320;51.520;6.818;2023-05-29T07:31:58;101890.47;;;15.73;63.36
4528;BME280;62320;51.520;6.818;2023-05-29T07:42:00;101889.53;;;15.89;64.16
4528;BME280;62320;51.520;6.818;2023-05-29T07:52:04;101902.28;;;16.44;62.66
4528;BME280;62320;51.520;6.818;2023-05-29T08:02:07;101911.13;;;17.42;59.79
4528;BME280;62320;51.520;6.818;2023-05-29T08:12:08;101909.97;;;16.76;61.62
4528;BME280;62320;51.520;6.818;2023-05-29T08:22:12;101928.59;;;17.39;60.98
4528;BME280;62320;51.520;6.818;2023-05-29T08:32:14;101918.38;;;17.15;58.83
4528;BME280;62320;51.520;6.818;2023-05-29T08:42:32;101926.28;;;17.95;58.22
4528;BME280;62320;51.520;6.818;2023-05-29T08:52:35;101933.44;;;17.79;58.23
4528;BME280;62320;51.520;6.818;2023-05-29T09:02:39;101927.81;;;18.14;57.84
4528;BME280;62320;51.520;6.818;2023-05-29T09:12:40;101936.72;;;17.10;58.87
4528;BME280;62320;51.520;6.818;2023-05-29T09:22:42;101947.53;;;18.41;57.60
4528;BME280;62320;51.520;6.818;2023-05-29T09:32:44;101947.19;;;17.98;57.16
4528;BME280;62320;51.520;6.818;2023-05-29T09:42:46;101946.19;;;18.10;56.34
4528;BME280;62320;51.520;6.818;2023-05-29T09:52:49;101935.09;;;18.58;55.44
4528;BME280;62320;51.520;6.818;2023-05-29T10:02:53;101941.03;;;18.71;56.86
4528;BME280;62320;51.520;6.818;2023-05-29T10:12:55;101945.31;;;18.76;54.81
4528;BME280;62320;51.520;6.818;2023-05-29T10:22:59;101915.97;;;18.51;55.97
4528;BME280;62320;51.520;6.818;2023-05-29T10:43:33;101918.22;;;18.15;55.75
4528;BME280;62320;51.520;6.818;2023-05-29T10:53:35;101904.19;;;18.80;55.84
4528;BME280;62320;51.520;6.818;2023-05-29T11:03:41;101905.50;;;19.06;53.65
4528;BME280;62320;51.520;6.818;2023-05-29T11:13:51;101907.03;;;19.18;54.05
4528;BME280;62320;51.520;6.818;2023-05-29T11:23:53;101910.03;;;19.49;52.90
4528;BME280;62320;51.520;6.818;2023-05-29T11:33:59;101899.81;;;19.32;53.05
4528;BME280;62320;51.520;6.818;2023-05-29T11:44:04;101898.38;;;19.63;52.89
4528;BME280;62320;51.520;6.818;2023-05-29T11:54:06;101887.44;;;19.42;51.68
4528;BME280;62320;51.520;6.818;2023-05-29T12:04:15;101886.06;;;19.67;52.79
4528;BME280;62320;51.520;6.818;2023-05-29T12:14:19;101879.72;;;19.78;51.66
4528;BME280;62320;51.520;6.818;2023-05-29T12:24:21;101896.38;;;19.76;51.63
4528;BME280;62320;51.520;6.818;2023-05-29T12:34:35;101880.28;;;19.92;51.26
4528;BME280;62320;51.520;6.818;2023-05-29T12:44:42;101894.13;;;19.99;50.35
4528;BME280;62320;51.520;6.818;2023-05-29T12:54:43;101885.03;;;20.17;50.77
4528;BME280;62320;51.520;6.818;2023-05-29T13:04:45;101893.84;;;20.13;49.03
4528;BME280;62320;51.520;6.818;2023-05-29T13:14:46;101882.59;;;20.06;48.69
4528;BME280;62320;51.520;6.818;2023-05-29T13:24:48;101889.84;;;20.36;48.46
4528;BME280;62320;51.520;6.818;2023-05-29T13:34:49;101873.44;;;20.27;48.79
4528;BME280;62320;51.520;6.818;2023-05-29T13:44:51;101867.47;;;20.19;48.30
4528;BME280;62320;51.520;6.818;2023-05-29T13:54:53;101874.47;;;20.18;48.52
4528;BME280;62320;51.520;6.818;2023-05-29T14:04:54;101861.00;;;20.33;49.00
4528;BME280;62320;51.520;6.818;2023-05-29T14:14:56;101871.94;;;20.14;49.28
4528;BME280;62320;51.520;6.818;2023-05-29T14:24:57;101869.72;;;19.96;49.18
4528;BME280;62320;51.520;6.818;2023-05-29T14:35:00;101863.19;;;20.13;48.33
4528;BME280;62320;51.520;6.818;2023-05-29T14:45:02;101874.81;;;20.03;46.09
4528;BME280;62320;51.520;6.818;2023-05-29T14:55:04;101866.88;;;19.65;44.33
4528;BME280;62320;51.520;6.818;2023-05-29T15:05:07;101867.66;;;19.68;45.02
4528;BME280;62320;51.520;6.818;2023-05-29T15:15:09;101860.75;;;19.64;45.01
4528;BME280;62320;51.520;6.818;2023-05-29T15:25:10;101845.78;;;19.68;43.10
4528;BME280;62320;51.520;6.818;2023-05-29T15:35:14;101856.78;;;19.42;42.11
4528;BME280;62320;51.520;6.818;2023-05-29T15:45:16;101845.44;;;19.42;39.03
4528;BME280;62320;51.520;6.818;2023-05-29T15:55:17;101864.44;;;19.54;39.54
4528;BME280;62320;51.520;6.818;2023-05-29T16:05:19;101856.66;;;19.50;41.19
4528;BME280;62320;51.520;6.818;2023-05-29T16:15:21;101856.66;;;19.50;40.76
4528;BME280;62320;51.520;6.818;2023-05-29T16:25:22;101842.59;;;19.52;36.84
4528;BME280;62320;51.520;6.818;2023-05-29T16:35:24;101845.41;;;19.43;38.56
4528;BME280;62320;51.520;6.818;2023-05-29T16:45:25;101839.19;;;19.49;38.24
4528;BME280;62320;51.520;6.818;2023-05-29T16:55:27;101839.97;;;19.52;38.73
4528;BME280;62320;51.520;6.818;2023-05-29T17:05:29;101841.97;;;19.41;37.30
4528;BME280;62320;51.520;6.818;2023-05-29T17:15:31;101841.91;;;19.43;38.68
4528;BME280;62320;51.520;6.818;2023-05-29T17:25:33;101849.88;;;19.38;38.20
4528;BME280;62320;51.520;6.818;2023-05-29T17:35:35;101853.31;;;19.40;39.28
4528;BME280;62320;51.520;6.818;2023-05-29T17:45:38;101856.97;;;19.32;40.35
4528;BME280;62320;51.520;6.818;2023-05-29T17:55:39;101866.00;;;19.17;37.98
4528;BME280;62320;51.520;6.818;2023-05-29T18:05:41;101853.22;;;18.99;39.31
4528;BME280;62320;51.520;6.818;2023-05-29T18:15:42;101849.63;;;19.01;40.55
4528;BME280;62320;51.520;6.818;2023-05-29T18:25:44;101852.66;;;18.79;39.57
4528;BME280;62320;51.520;6.818;2023-05-29T18:35:46;101865.13;;;18.65;39.08
4528;BME280;62320;51.520;6.818;2023-05-29T18:45:47;101869.59;;;18.58;38.26
4528;BME280;62320;51.520;6.818;2023-05-29T18:55:49;101871.56;;;18.41;39.95
4528;BME280;62320;51.520;6.818;2023-05-29T19:05:52;101881.38;;;18.28;39.24
4528;BME280;62320;51.520;6.818;2023-05-29T19:15:54;101891.28;;;18.04;40.92
4528;BME280;62320;51.520;6.818;2023-05-29T19:25:56;101896.91;;;17.73;41.60
4528;BME280;62320;51.520;6.818;2023-05-29T19:35:57;101911.00;;;17.59;41.65
4528;BME280;62320;51.520;6.818;2023-05-29T19:45:59;101922.53;;;17.37;43.32
4528;BME280;62320;51.520;6.818;2023-05-29T19:56:07;101920.38;;;16.85;42.08
4528;BME280;62320;51.520;6.818;2023-05-29T20:06:09;101927.53;;;16.53;42.55
4528;BME280;62320;51.520;6.818;2023-05-29T20:16:10;101931.91;;;16.40;42.90
4528;BME280;62320;51.520;6.818;2023-05-29T20:26:12;101932.91;;;16.14;42.61
4528;BME280;62320;51.520;6.818;2023-05-29T20:36:13;101945.13;;;16.12;44.06
4528;BME280;62320;51.520;6.818;2023-05-29T20:46:15;101962.63;;;15.78;46.83
4528;BME280;62320;51.520;6.818;2023-05-29T20:56:17;101960.00;;;15.63;47.75
4528;BME280;62320;51.520;6.818;2023-05-29T21:06:20;101959.16;;;15.23;50.36
4528;BME280;62320;51.520;6.818;2023-05-29T21:16:21;101956.56;;;15.31;50.33
4528;BME280;62320;51.520;6.818;2023-05-29T21:26:23;101959.16;;;15.00;51.60
4528;BME280;62320;51.520;6.818;2023-05-29T21:36:25;101956.44;;;14.48;53.09
4528;BME280;62320;51.520;6.818;2023-05-29T21:46:26;101966.84;;;14.43;53.42
4528;BME280;62320;51.520;6.818;2023-05-29T21:56:28;101981.50;;;14.26;53.69
4528;BME280;62320;51.520;6.818;2023-05-29T22:06:30;101996.03;;;13.89;54.59
4528;BME280;62320;51.520;6.818;2023-05-29T22:16:33;101995.91;;;13.70;55.80
4528;BME280;62320;51.520;6.818;2023-05-29T22:26:36;101994.84;;;13.45;57.40
4528;BME280;62320;51.520;6.818;2023-05-29T22:36:37;101998.97;;;13.20;57.48
4528;BME280;62320;51.520;6.818;2023-05-29T22:46:39;102020.38;;;12.98;59.77
4528;BME280;62320;51.520;6.818;2023-05-29T22:56:41;102013.94;;;13.48;55.91
4528;BME280;62320;51.520;6.818;2023-05-29T23:06:46;102030.50;;;12.75;60.78
4528;BME280;62320;51.520;6.818;2023-05-29T23:16:49;102036.59;;;12.79;59.83
4528;BME280;62320;51.520;6.818;2023-05-29T23:26:52;102032.19;;;12.70;60.70
4528;BME280;62320;51.520;6.818;2023-05-29T23:36:54;102035.59;;;12.65;60.02
4528;BME280;62320;51.520;6.818;2023-05-29T23:46:55;102046.03;;;12.72;58.97
4528;BME280;62320;51.520;6.818;2023-05-29T23:56:57;102057.41;;;12.14;62.83
